createdAt,value
2019-06-19T00:00:22.390Z,0.00
2019-06-19T00:01:22.258Z,0.00
2019-06-19T00:02:19.877Z,0.00
2019-06-19T00:03:22.221Z,0.00
2019-06-19T00:04:19.848Z,0.00
2019-06-19T00:05:19.834Z,0.00
2019-06-19T00:06:19.820Z,0.00
2019-06-19T00:07:19.809Z,0.00
2019-06-19T00:08:19.793Z,0.00
2019-06-19T00:09:19.777Z,0.00
2019-06-19T00:10:22.401Z,0.00
2019-06-19T00:11:19.732Z,0.00
2019-06-19T00:12:19.714Z,0.00
2019-06-19T00:13:19.700Z,0.00
2019-06-19T00:14:19.685Z,0.00
2019-06-19T00:15:22.243Z,0.00
2019-06-19T00:16:19.668Z,0.00
2019-06-19T00:17:22.131Z,0.00
2019-06-19T00:18:19.631Z,0.00
2019-06-19T00:19:19.616Z,0.00
2019-06-19T00:20:22.240Z,0.00
2019-06-19T00:21:19.583Z,0.00
2019-06-19T00:22:19.566Z,0.00
2019-06-19T00:23:19.553Z,0.00
2019-06-19T00:24:19.537Z,0.00
2019-06-19T00:25:19.525Z,0.00
2019-06-19T00:26:19.509Z,0.00
2019-06-19T00:27:19.495Z,0.00
2019-06-19T00:28:25.531Z,0.00
2019-06-19T00:29:22.191Z,0.00
2019-06-19T00:30:21.130Z,0.00
2019-06-19T00:31:21.942Z,0.00
2019-06-19T00:32:20.646Z,0.00
2019-06-19T00:33:21.117Z,0.00
2019-06-19T00:34:21.366Z,0.00
2019-06-19T00:35:21.544Z,0.00
2019-06-19T00:36:20.924Z,0.00
2019-06-19T00:37:21.028Z,0.00
2019-06-19T00:38:21.165Z,0.00
2019-06-19T00:39:21.478Z,0.00
2019-06-19T00:40:20.806Z,0.00
2019-06-19T00:41:21.516Z,0.00
2019-06-19T00:42:20.784Z,0.00
2019-06-19T00:43:21.233Z,0.00
2019-06-19T00:44:20.956Z,0.00
2019-06-19T00:45:20.721Z,0.00
2019-06-19T00:46:21.497Z,0.00
2019-06-19T00:47:21.094Z,0.00
2019-06-19T00:48:20.817Z,0.00
2019-06-19T00:49:20.938Z,0.00
2019-06-19T00:50:21.538Z,0.00
2019-06-19T00:51:20.974Z,0.00
2019-06-19T00:52:21.148Z,0.00
2019-06-19T00:53:21.322Z,0.00
2019-06-19T00:54:21.126Z,0.00
2019-06-19T00:55:21.097Z,0.00
2019-06-19T00:56:21.522Z,0.00
2019-06-19T00:57:20.511Z,0.00
2019-06-19T00:58:21.815Z,0.00
2019-06-19T00:59:21.353Z,0.00
2019-06-19T01:00:21.517Z,0.00
2019-06-19T01:01:21.893Z,0.00
2019-06-19T01:02:21.342Z,0.00
2019-06-19T01:03:21.683Z,0.00
2019-06-19T01:04:21.512Z,0.00
2019-06-19T01:05:21.141Z,0.00
2019-06-19T01:06:21.557Z,0.00
2019-06-19T01:07:21.003Z,0.00
2019-06-19T01:08:21.255Z,0.00
2019-06-19T01:09:21.081Z,0.00
2019-06-19T01:10:20.963Z,0.00
2019-06-19T01:11:20.958Z,0.00
2019-06-19T01:12:20.923Z,0.00
2019-06-19T01:13:21.393Z,0.00
2019-06-19T01:14:21.043Z,0.00
2019-06-19T01:15:21.416Z,0.00
2019-06-19T01:16:20.730Z,0.00
2019-06-19T01:17:20.928Z,0.00
2019-06-19T01:18:20.899Z,0.00
2019-06-19T01:19:20.951Z,0.00
2019-06-19T01:20:20.998Z,0.00
2019-06-19T01:21:20.169Z,0.00
2019-06-19T01:22:20.695Z,0.00
2019-06-19T01:23:18.674Z,0.00
2019-06-19T01:24:20.767Z,0.00
2019-06-19T01:25:18.641Z,0.00
2019-06-19T01:26:20.845Z,0.00
2019-06-19T01:27:20.551Z,0.00
2019-06-19T01:28:18.597Z,0.00
2019-06-19T01:29:18.583Z,0.00
2019-06-19T01:30:20.961Z,0.00
2019-06-19T01:31:18.559Z,0.00
2019-06-19T01:32:18.543Z,0.00
2019-06-19T01:33:20.643Z,0.00
2019-06-19T01:34:18.513Z,0.00
2019-06-19T01:35:20.566Z,0.00
2019-06-19T01:36:21.026Z,0.00
2019-06-19T01:37:21.285Z,0.00
2019-06-19T01:38:18.450Z,0.00
2019-06-19T01:39:20.978Z,0.00
2019-06-19T01:40:20.827Z,0.00
2019-06-19T01:41:21.054Z,0.00
2019-06-19T01:42:18.387Z,0.00
2019-06-19T01:43:21.276Z,0.00
2019-06-19T01:44:20.616Z,0.00
2019-06-19T01:45:18.342Z,0.00
2019-06-19T01:46:20.901Z,0.00
2019-06-19T01:47:18.329Z,0.00
2019-06-19T01:48:20.730Z,0.00
2019-06-19T01:49:18.298Z,0.00
2019-06-19T01:50:18.269Z,0.00
2019-06-19T01:51:20.592Z,0.00
2019-06-19T01:52:18.240Z,0.00
2019-06-19T01:53:18.228Z,0.00
2019-06-19T01:54:18.225Z,0.00
2019-06-19T01:55:20.404Z,0.00
2019-06-19T01:56:18.177Z,0.00
2019-06-19T01:57:18.166Z,0.00
2019-06-19T01:58:21.654Z,0.00
2019-06-19T01:59:18.134Z,0.00
2019-06-19T02:00:32.135Z,0.00
2019-06-19T02:01:18.105Z,0.00
2019-06-19T02:02:20.492Z,0.00
2019-06-19T02:03:18.074Z,0.00
2019-06-19T02:04:20.661Z,0.00
2019-06-19T02:05:18.047Z,0.00
2019-06-19T02:06:18.033Z,0.00
2019-06-19T02:07:18.014Z,0.00
2019-06-19T02:08:18.000Z,0.00
2019-06-19T02:09:18.014Z,0.00
2019-06-19T02:10:17.971Z,0.00
2019-06-19T02:11:17.958Z,0.00
2019-06-19T02:12:17.942Z,0.00
2019-06-19T02:13:17.926Z,0.00
2019-06-19T02:14:17.908Z,0.00
2019-06-19T02:15:17.895Z,0.00
2019-06-19T02:16:20.641Z,0.00
2019-06-19T02:17:17.865Z,0.00
2019-06-19T02:18:17.853Z,0.00
2019-06-19T02:19:20.135Z,0.00
2019-06-19T02:20:17.817Z,0.00
2019-06-19T02:21:17.805Z,0.00
2019-06-19T02:22:17.791Z,0.00
2019-06-19T02:23:20.388Z,0.00
2019-06-19T02:24:17.757Z,0.00
2019-06-19T02:25:17.743Z,0.00
2019-06-19T02:26:17.727Z,0.00
2019-06-19T02:27:17.715Z,0.00
2019-06-19T02:28:17.696Z,0.00
2019-06-19T02:29:17.682Z,0.00
2019-06-19T02:30:21.582Z,0.00
2019-06-19T02:31:17.661Z,0.00
2019-06-19T02:32:21.011Z,0.00
2019-06-19T02:33:21.840Z,0.00
2019-06-19T02:34:21.470Z,0.00
2019-06-19T02:35:17.593Z,0.00
2019-06-19T02:36:17.575Z,0.00
2019-06-19T02:37:17.565Z,0.00
2019-06-19T02:38:17.550Z,0.00
2019-06-19T02:39:17.532Z,0.00
2019-06-19T02:40:17.517Z,0.00
2019-06-19T02:41:17.506Z,0.00
2019-06-19T02:42:17.487Z,0.00
2019-06-19T02:43:17.470Z,0.00
2019-06-19T02:44:17.454Z,0.00
2019-06-19T02:45:17.441Z,0.00
2019-06-19T02:46:17.426Z,0.00
2019-06-19T02:47:17.412Z,0.00
2019-06-19T02:48:17.394Z,0.00
2019-06-19T02:49:17.380Z,0.00
2019-06-19T02:50:17.366Z,0.00
2019-06-19T02:51:17.350Z,0.00
2019-06-19T02:52:17.337Z,0.00
2019-06-19T02:53:17.322Z,0.00
2019-06-19T02:54:17.307Z,0.00
2019-06-19T02:55:17.290Z,0.00
2019-06-19T02:56:17.274Z,0.00
2019-06-19T02:57:17.259Z,0.00
2019-06-19T02:58:17.244Z,0.00
2019-06-19T02:59:17.232Z,0.00
2019-06-19T03:00:17.215Z,0.00
2019-06-19T03:01:17.203Z,0.00
2019-06-19T03:02:17.184Z,0.00
2019-06-19T03:03:17.169Z,0.00
2019-06-19T03:04:17.156Z,0.00
2019-06-19T03:05:17.140Z,0.00
2019-06-19T03:06:17.128Z,0.00
2019-06-19T03:07:17.109Z,0.00
2019-06-19T03:08:17.093Z,0.00
2019-06-19T03:09:17.080Z,0.00
2019-06-19T03:10:17.064Z,0.00
2019-06-19T03:11:17.049Z,0.00
2019-06-19T03:12:17.032Z,0.00
2019-06-19T03:13:17.022Z,0.00
2019-06-19T03:14:17.003Z,5.63
2019-06-19T03:15:16.989Z,5.63
2019-06-19T03:16:16.973Z,5.63
2019-06-19T03:17:16.957Z,5.63
2019-06-19T03:18:16.946Z,5.63
2019-06-19T03:19:16.931Z,5.63
2019-06-19T03:20:16.912Z,5.63
2019-06-19T03:21:16.897Z,5.63
2019-06-19T03:22:16.883Z,5.63
2019-06-19T03:23:16.868Z,11.25
2019-06-19T03:24:17.431Z,11.25
2019-06-19T03:25:16.841Z,11.25
2019-06-19T03:26:16.826Z,11.25
2019-06-19T03:27:16.807Z,11.25
2019-06-19T03:28:16.792Z,11.25
2019-06-19T03:29:16.781Z,11.25
2019-06-19T03:30:16.767Z,16.88
2019-06-19T03:31:34.088Z,16.88
2019-06-19T03:32:16.732Z,16.88
2019-06-19T03:33:16.725Z,16.88
2019-06-19T03:34:16.716Z,16.88
2019-06-19T03:35:16.690Z,22.50
2019-06-19T03:36:16.677Z,22.50
2019-06-19T03:37:16.659Z,22.50
2019-06-19T03:38:16.644Z,22.50
2019-06-19T03:39:16.636Z,28.13
2019-06-19T03:40:16.612Z,28.13
2019-06-19T03:41:16.599Z,28.13
2019-06-19T03:42:16.585Z,28.13
2019-06-19T03:43:16.565Z,33.75
2019-06-19T03:44:16.551Z,33.75
2019-06-19T03:45:16.537Z,33.75
2019-06-19T03:46:16.519Z,33.75
2019-06-19T03:47:16.514Z,39.38
2019-06-19T03:48:16.489Z,39.38
2019-06-19T03:49:16.476Z,39.38
2019-06-19T03:50:16.460Z,39.38
2019-06-19T03:51:16.445Z,45.00
2019-06-19T03:52:16.429Z,45.00
2019-06-19T03:53:16.412Z,45.00
2019-06-19T03:54:16.397Z,45.00
2019-06-19T03:55:16.382Z,50.63
2019-06-19T03:56:16.368Z,50.63
2019-06-19T03:57:16.352Z,50.63
2019-06-19T03:58:16.338Z,50.63
2019-06-19T03:59:16.332Z,56.25
2019-06-19T04:00:16.308Z,56.25
2019-06-19T04:01:16.292Z,56.25
2019-06-19T04:02:16.276Z,56.25
2019-06-19T04:03:16.264Z,61.88
2019-06-19T04:04:16.273Z,61.88
2019-06-19T04:05:16.235Z,61.88
2019-06-19T04:06:16.216Z,61.88
2019-06-19T04:07:16.960Z,67.50
2019-06-19T04:08:16.191Z,67.50
2019-06-19T04:09:16.173Z,67.50
2019-06-19T04:10:16.157Z,67.50
2019-06-19T04:11:16.142Z,73.13
2019-06-19T04:12:16.127Z,73.13
2019-06-19T04:13:16.113Z,73.13
2019-06-19T04:14:16.106Z,73.13
2019-06-19T04:15:16.087Z,78.75
2019-06-19T04:16:16.066Z,78.75
2019-06-19T04:17:16.054Z,78.75
2019-06-19T04:18:16.037Z,78.75
2019-06-19T04:19:16.025Z,84.38
2019-06-19T04:20:16.011Z,84.38
2019-06-19T04:21:15.992Z,84.38
2019-06-19T04:22:15.978Z,84.38
2019-06-19T04:23:15.963Z,90.00
2019-06-19T04:24:15.950Z,90.00
2019-06-19T04:25:15.936Z,90.00
2019-06-19T04:26:15.919Z,90.00
2019-06-19T04:27:15.905Z,90.00
2019-06-19T04:28:15.889Z,95.63
2019-06-19T04:29:15.874Z,95.63
2019-06-19T04:30:15.862Z,95.63
2019-06-19T04:31:15.846Z,95.63
2019-06-19T04:32:15.831Z,101.25
2019-06-19T04:33:15.816Z,101.25
2019-06-19T04:34:15.803Z,101.25
2019-06-19T04:35:15.791Z,101.25
2019-06-19T04:36:15.776Z,106.88
2019-06-19T04:37:15.759Z,106.88
2019-06-19T04:38:15.765Z,106.88
2019-06-19T04:39:15.739Z,106.88
2019-06-19T04:40:15.718Z,106.88
2019-06-19T04:41:15.700Z,112.50
2019-06-19T04:42:15.688Z,112.50
2019-06-19T04:43:15.675Z,112.50
2019-06-19T04:44:15.659Z,112.50
2019-06-19T04:45:15.646Z,112.50
2019-06-19T04:46:15.630Z,118.13
2019-06-19T04:47:15.616Z,118.13
2019-06-19T04:48:15.604Z,118.13
2019-06-19T04:49:15.592Z,118.13
2019-06-19T04:50:15.573Z,118.13
2019-06-19T04:51:15.566Z,118.13
2019-06-19T04:52:15.547Z,118.13
2019-06-19T04:53:15.532Z,123.75
2019-06-19T04:54:15.517Z,123.75
2019-06-19T04:55:15.594Z,129.38
2019-06-19T04:56:15.488Z,129.38
2019-06-19T04:57:15.523Z,135.00
2019-06-19T04:58:15.460Z,151.88
2019-06-19T04:59:15.448Z,208.13
2019-06-19T05:00:15.550Z,264.38
2019-06-19T05:01:15.428Z,286.88
2019-06-19T05:02:21.246Z,292.50
2019-06-19T05:03:15.406Z,292.50
2019-06-19T05:04:15.395Z,303.75
2019-06-19T05:05:15.392Z,292.50
2019-06-19T05:06:15.380Z,286.88
2019-06-19T05:07:15.371Z,241.88
2019-06-19T05:08:15.361Z,202.50
2019-06-19T05:09:15.354Z,247.50
2019-06-19T05:10:15.350Z,298.13
2019-06-19T05:11:15.342Z,303.75
2019-06-19T05:12:15.337Z,303.75
2019-06-19T05:13:15.331Z,309.38
2019-06-19T05:14:15.326Z,303.75
2019-06-19T05:15:15.323Z,286.88
2019-06-19T05:16:15.326Z,241.88
2019-06-19T05:17:15.312Z,191.25
2019-06-19T05:18:15.308Z,174.38
2019-06-19T05:19:15.303Z,219.38
2019-06-19T05:20:15.296Z,264.38
2019-06-19T05:21:15.293Z,275.63
2019-06-19T05:22:15.294Z,275.63
2019-06-19T05:23:15.284Z,264.38
2019-06-19T05:24:15.277Z,230.63
2019-06-19T05:25:15.275Z,230.63
2019-06-19T05:26:15.270Z,264.38
2019-06-19T05:27:15.265Z,275.63
2019-06-19T05:28:15.269Z,275.63
2019-06-19T05:29:15.256Z,270.00
2019-06-19T05:30:15.258Z,247.50
2019-06-19T05:31:15.249Z,208.13
2019-06-19T05:32:15.244Z,185.63
2019-06-19T05:33:15.247Z,202.50
2019-06-19T05:34:16.976Z,241.88
2019-06-19T05:35:15.235Z,275.63
2019-06-19T05:36:15.230Z,281.25
2019-06-19T05:37:15.288Z,281.25
2019-06-19T05:38:15.229Z,281.25
2019-06-19T05:39:15.220Z,286.88
2019-06-19T05:40:15.223Z,281.25
2019-06-19T05:41:15.221Z,286.88
2019-06-19T05:42:15.231Z,286.88
2019-06-19T05:43:15.209Z,292.50
2019-06-19T05:44:15.208Z,292.50
2019-06-19T05:45:15.216Z,298.13
2019-06-19T05:46:15.201Z,298.13
2019-06-19T05:47:15.220Z,298.13
2019-06-19T05:48:15.209Z,303.75
2019-06-19T05:49:15.199Z,309.38
2019-06-19T05:50:15.206Z,315.00
2019-06-19T05:51:15.200Z,320.63
2019-06-19T05:52:15.197Z,326.25
2019-06-19T05:53:15.195Z,331.88
2019-06-19T05:54:15.197Z,337.50
2019-06-19T05:55:15.196Z,343.13
2019-06-19T05:56:15.257Z,348.75
2019-06-19T05:57:15.191Z,360.00
2019-06-19T05:58:15.193Z,376.88
2019-06-19T05:59:15.202Z,388.13
2019-06-19T06:00:15.193Z,410.63
2019-06-19T06:01:15.205Z,421.88
2019-06-19T06:02:15.192Z,438.75
2019-06-19T06:03:15.197Z,461.25
2019-06-19T06:04:15.194Z,483.75
2019-06-19T06:05:15.192Z,500.63
2019-06-19T06:06:15.199Z,528.75
2019-06-19T06:07:15.200Z,534.38
2019-06-19T06:08:15.198Z,556.88
2019-06-19T06:09:15.199Z,568.13
2019-06-19T06:10:15.203Z,579.38
2019-06-19T06:11:15.204Z,590.63
2019-06-19T06:12:15.203Z,607.50
2019-06-19T06:13:15.204Z,618.75
2019-06-19T06:14:15.203Z,624.38
2019-06-19T06:15:15.206Z,635.63
2019-06-19T06:16:15.212Z,646.88
2019-06-19T06:17:15.214Z,646.88
2019-06-19T06:18:15.225Z,658.13
2019-06-19T06:19:15.221Z,669.38
2019-06-19T06:20:15.213Z,675.00
2019-06-19T06:21:15.218Z,680.63
2019-06-19T06:22:15.227Z,686.25
2019-06-19T06:23:15.228Z,697.50
2019-06-19T06:24:15.222Z,703.13
2019-06-19T06:25:15.224Z,714.38
2019-06-19T06:26:15.240Z,731.25
2019-06-19T06:27:15.232Z,736.88
2019-06-19T06:28:15.235Z,742.50
2019-06-19T06:29:15.232Z,748.13
2019-06-19T06:30:15.229Z,753.75
2019-06-19T06:31:15.263Z,759.38
2019-06-19T06:32:15.242Z,765.00
2019-06-19T06:33:15.237Z,770.63
2019-06-19T06:34:15.238Z,781.88
2019-06-19T06:35:15.235Z,776.25
2019-06-19T06:36:15.246Z,793.13
2019-06-19T06:37:15.239Z,793.13
2019-06-19T06:38:15.239Z,804.38
2019-06-19T06:39:15.246Z,810.00
2019-06-19T06:40:15.244Z,815.63
2019-06-19T06:41:15.243Z,821.25
2019-06-19T06:42:15.249Z,826.88
2019-06-19T06:43:15.247Z,821.25
2019-06-19T06:44:15.249Z,838.13
2019-06-19T06:45:15.262Z,832.50
2019-06-19T06:46:15.257Z,843.75
2019-06-19T06:47:15.266Z,843.75
2019-06-19T06:48:15.255Z,855.00
2019-06-19T06:49:15.259Z,860.63
2019-06-19T06:50:15.259Z,871.88
2019-06-19T06:51:15.263Z,877.50
2019-06-19T06:52:15.261Z,860.63
2019-06-19T06:53:15.265Z,866.25
2019-06-19T06:54:15.264Z,877.50
2019-06-19T06:55:18.157Z,900.00
2019-06-19T06:56:15.271Z,916.88
2019-06-19T06:57:15.278Z,945.00
2019-06-19T06:58:15.274Z,973.13
2019-06-19T06:59:15.273Z,1012.50
2019-06-19T07:00:15.274Z,1051.88
2019-06-19T07:01:15.298Z,1102.50
2019-06-19T07:02:15.294Z,1125.00
2019-06-19T07:03:24.396Z,1153.13
2019-06-19T07:04:15.285Z,1192.50
2019-06-19T07:05:15.287Z,1209.38
2019-06-19T07:06:15.283Z,1243.13
2019-06-19T07:07:15.290Z,1231.88
2019-06-19T07:08:15.290Z,1102.50
2019-06-19T07:09:15.311Z,1141.88
2019-06-19T07:10:15.297Z,461.25
2019-06-19T07:11:15.305Z,450.00
2019-06-19T07:12:15.291Z,461.25
2019-06-19T07:13:15.296Z,450.00
2019-06-19T07:14:15.296Z,450.00
2019-06-19T07:15:15.293Z,450.00
2019-06-19T07:16:15.291Z,455.63
2019-06-19T07:17:15.291Z,450.00
2019-06-19T07:18:15.290Z,540.00
2019-06-19T07:19:15.284Z,461.25
2019-06-19T07:20:15.294Z,461.25
2019-06-19T07:21:15.278Z,455.63
2019-06-19T07:22:15.275Z,871.88
2019-06-19T07:23:15.271Z,455.63
2019-06-19T07:24:15.269Z,483.75
2019-06-19T07:25:15.264Z,511.88
2019-06-19T07:26:15.261Z,1243.13
2019-06-19T07:27:15.256Z,1440.00
2019-06-19T07:28:15.383Z,1468.13
2019-06-19T07:29:15.326Z,1552.50
2019-06-19T07:30:15.248Z,1620.00
2019-06-19T07:31:15.247Z,1665.00
2019-06-19T07:32:15.250Z,1676.25
2019-06-19T07:33:15.242Z,1687.50
2019-06-19T07:34:15.242Z,1518.75
2019-06-19T07:35:15.243Z,1580.63
2019-06-19T07:36:15.241Z,1546.88
2019-06-19T07:37:15.244Z,1569.38
2019-06-19T07:38:15.243Z,1501.88
2019-06-19T07:39:15.241Z,1096.88
2019-06-19T07:40:15.242Z,1310.63
2019-06-19T07:41:15.243Z,1411.88
2019-06-19T07:42:15.243Z,1456.88
2019-06-19T07:43:15.250Z,1473.75
2019-06-19T07:44:15.244Z,1316.25
2019-06-19T07:45:15.248Z,950.63
2019-06-19T07:46:15.246Z,697.50
2019-06-19T07:47:15.252Z,798.75
2019-06-19T07:48:15.256Z,1260.00
2019-06-19T07:49:15.489Z,1507.50
2019-06-19T07:50:15.253Z,1513.13
2019-06-19T07:51:15.259Z,1524.38
2019-06-19T07:52:15.253Z,1524.38
2019-06-19T07:53:15.255Z,1541.25
2019-06-19T07:54:15.274Z,1558.13
2019-06-19T07:55:15.255Z,1591.88
2019-06-19T07:56:15.259Z,1631.25
2019-06-19T07:57:15.260Z,1620.00
2019-06-19T07:58:15.259Z,967.50
2019-06-19T07:59:15.272Z,433.13
2019-06-19T08:00:15.275Z,416.25
2019-06-19T08:01:15.264Z,399.38
2019-06-19T08:02:15.353Z,388.13
2019-06-19T08:03:15.273Z,365.63
2019-06-19T08:04:15.263Z,382.50
2019-06-19T08:05:15.267Z,416.25
2019-06-19T08:06:15.261Z,472.50
2019-06-19T08:07:15.255Z,528.75
2019-06-19T08:08:15.257Z,601.88
2019-06-19T08:09:15.253Z,596.25
2019-06-19T08:10:15.251Z,579.38
2019-06-19T08:11:15.253Z,607.50
2019-06-19T08:12:15.251Z,590.63
2019-06-19T08:13:15.245Z,562.50
2019-06-19T08:14:15.265Z,601.88
2019-06-19T08:15:15.236Z,585.00
2019-06-19T08:16:15.232Z,1794.38
2019-06-19T08:17:15.273Z,1760.63
2019-06-19T08:18:15.227Z,568.13
2019-06-19T08:19:15.228Z,320.63
2019-06-19T08:20:15.222Z,298.13
2019-06-19T08:21:15.221Z,286.88
2019-06-19T08:22:15.221Z,292.50
2019-06-19T08:23:15.213Z,303.75
2019-06-19T08:24:15.211Z,331.88
2019-06-19T08:25:15.208Z,450.00
2019-06-19T08:26:15.203Z,1856.25
2019-06-19T08:27:15.207Z,1890.00
2019-06-19T08:28:15.220Z,1895.63
2019-06-19T08:29:15.203Z,1918.13
2019-06-19T08:30:15.207Z,1884.38
2019-06-19T08:31:15.192Z,1833.75
2019-06-19T08:32:15.188Z,1895.63
2019-06-19T08:33:15.187Z,1901.25
2019-06-19T08:34:15.285Z,1906.88
2019-06-19T08:35:15.186Z,1895.63
2019-06-19T08:36:15.191Z,1884.38
2019-06-19T08:37:15.192Z,1861.88
2019-06-19T08:38:15.189Z,1861.88
2019-06-19T08:39:15.242Z,1856.25
2019-06-19T08:40:15.183Z,1828.13
2019-06-19T08:41:15.181Z,1822.50
2019-06-19T08:42:15.219Z,1822.50
2019-06-19T08:43:15.190Z,1811.25
2019-06-19T08:44:15.186Z,1805.63
2019-06-19T08:45:15.190Z,1805.63
2019-06-19T08:46:15.187Z,1822.50
2019-06-19T08:47:15.187Z,1822.50
2019-06-19T08:48:15.192Z,1850.63
2019-06-19T08:49:15.195Z,1833.75
2019-06-19T08:50:18.231Z,1833.75
2019-06-19T08:51:15.192Z,1816.88
2019-06-19T08:52:15.212Z,1833.75
2019-06-19T08:53:15.209Z,1845.00
2019-06-19T08:54:15.198Z,1839.38
2019-06-19T08:55:15.201Z,1839.38
2019-06-19T08:56:15.215Z,1839.38
2019-06-19T08:57:15.202Z,1839.38
2019-06-19T08:58:15.201Z,1839.38
2019-06-19T08:59:15.205Z,1839.38
2019-06-19T09:00:15.209Z,1828.13
2019-06-19T09:01:15.206Z,1839.38
2019-06-19T09:02:15.255Z,1822.50
2019-06-19T09:03:15.212Z,1839.38
2019-06-19T09:04:24.545Z,1839.38
2019-06-19T09:05:15.213Z,1861.88
2019-06-19T09:06:15.215Z,1833.75
2019-06-19T09:07:15.211Z,1839.38
2019-06-19T09:08:15.229Z,1839.38
2019-06-19T09:09:15.218Z,1850.63
2019-06-19T09:10:15.216Z,1850.63
2019-06-19T09:11:15.216Z,1856.25
2019-06-19T09:12:15.353Z,1867.50
2019-06-19T09:13:15.235Z,1845.00
2019-06-19T09:14:15.220Z,1861.88
2019-06-19T09:15:15.249Z,1867.50
2019-06-19T09:16:15.219Z,1861.88
2019-06-19T09:17:15.220Z,1873.13
2019-06-19T09:18:15.221Z,1873.13
2019-06-19T09:19:15.228Z,1878.75
2019-06-19T09:20:15.225Z,1873.13
2019-06-19T09:21:15.225Z,1873.13
2019-06-19T09:22:15.225Z,1873.13
2019-06-19T09:23:15.235Z,1878.75
2019-06-19T09:24:15.227Z,1890.00
2019-06-19T09:25:15.653Z,1901.25
2019-06-19T09:26:15.327Z,1906.88
2019-06-19T09:27:15.228Z,1912.50
2019-06-19T09:28:15.239Z,1918.13
2019-06-19T09:29:15.231Z,1935.00
2019-06-19T09:30:15.228Z,1929.38
2019-06-19T09:31:15.577Z,1929.38
2019-06-19T09:32:15.231Z,1963.13
2019-06-19T09:33:18.474Z,1940.63
2019-06-19T09:34:15.231Z,1951.88
2019-06-19T09:35:15.230Z,1963.13
2019-06-19T09:36:15.229Z,1985.63
2019-06-19T09:37:15.231Z,2002.50
2019-06-19T09:38:15.230Z,2025.00
2019-06-19T09:39:15.235Z,2041.88
2019-06-19T09:40:15.276Z,2030.63
2019-06-19T09:41:15.230Z,2036.25
2019-06-19T09:42:15.233Z,2047.50
2019-06-19T09:43:15.235Z,2025.00
2019-06-19T09:44:15.233Z,1974.38
2019-06-19T09:45:15.240Z,2081.25
2019-06-19T09:46:15.233Z,2008.13
2019-06-19T09:47:15.234Z,2081.25
2019-06-19T09:48:15.238Z,2120.63
2019-06-19T09:49:15.236Z,2109.38
2019-06-19T09:50:15.237Z,2126.25
2019-06-19T09:51:15.235Z,2131.88
2019-06-19T09:52:15.243Z,2143.13
2019-06-19T09:53:15.246Z,2154.38
2019-06-19T09:54:15.237Z,2193.75
2019-06-19T09:55:15.240Z,1147.50
2019-06-19T09:56:15.240Z,1873.13
2019-06-19T09:57:15.239Z,2221.88
2019-06-19T09:58:15.271Z,2300.63
2019-06-19T09:59:15.243Z,2126.25
2019-06-19T10:00:15.245Z,1237.50
2019-06-19T10:01:15.248Z,1462.50
2019-06-19T10:02:15.245Z,1063.13
2019-06-19T10:03:15.248Z,866.25
2019-06-19T10:04:15.245Z,708.75
2019-06-19T10:05:15.414Z,624.38
2019-06-19T10:06:15.947Z,573.75
2019-06-19T10:07:15.287Z,618.75
2019-06-19T10:08:15.251Z,1136.25
2019-06-19T10:09:15.243Z,742.50
2019-06-19T10:10:15.250Z,1051.88
2019-06-19T10:11:15.242Z,990.00
2019-06-19T10:12:17.884Z,2390.63
2019-06-19T10:13:15.240Z,1260.00
2019-06-19T10:14:15.238Z,1350.00
2019-06-19T10:15:15.246Z,2677.50
2019-06-19T10:16:15.251Z,1254.38
2019-06-19T10:17:15.234Z,1901.25
2019-06-19T10:18:15.235Z,1850.63
2019-06-19T10:19:15.231Z,1096.88
2019-06-19T10:20:15.237Z,1141.88
2019-06-19T10:21:15.244Z,1693.13
2019-06-19T10:22:15.225Z,2598.75
2019-06-19T10:23:15.226Z,2649.38
2019-06-19T10:24:15.223Z,1130.63
2019-06-19T10:25:15.234Z,2446.88
2019-06-19T10:26:15.231Z,1046.25
2019-06-19T10:27:15.221Z,1119.38
2019-06-19T10:28:15.218Z,1119.38
2019-06-19T10:29:15.215Z,1164.38
2019-06-19T10:30:15.219Z,1355.63
2019-06-19T10:31:15.218Z,1890.00
2019-06-19T10:32:15.216Z,1929.38
2019-06-19T10:33:15.207Z,1614.38
2019-06-19T10:34:15.215Z,2705.63
2019-06-19T10:35:23.954Z,2767.50
2019-06-19T10:36:15.221Z,2638.13
2019-06-19T10:37:15.211Z,2351.25
2019-06-19T10:38:15.202Z,2266.88
2019-06-19T10:39:15.220Z,1248.75
2019-06-19T10:40:15.216Z,1001.25
2019-06-19T10:41:15.219Z,973.13
2019-06-19T10:42:15.195Z,990.00
2019-06-19T10:43:15.195Z,1091.25
2019-06-19T10:44:15.221Z,1198.13
2019-06-19T10:45:15.196Z,1164.38
2019-06-19T10:46:15.195Z,1963.13
2019-06-19T10:47:15.188Z,1136.25
2019-06-19T10:48:15.187Z,1006.88
2019-06-19T10:49:15.202Z,900.00
2019-06-19T10:50:15.202Z,810.00
2019-06-19T10:51:15.181Z,765.00
2019-06-19T10:52:15.254Z,753.75
2019-06-19T10:53:15.175Z,826.88
2019-06-19T10:54:15.185Z,838.13
2019-06-19T10:55:15.270Z,748.13
2019-06-19T10:56:15.167Z,703.13
2019-06-19T10:57:15.164Z,658.13
2019-06-19T10:58:15.158Z,635.63
2019-06-19T10:59:15.162Z,630.00
2019-06-19T11:00:15.151Z,646.88
2019-06-19T11:01:15.147Z,680.63
2019-06-19T11:02:15.157Z,731.25
2019-06-19T11:03:15.224Z,781.88
2019-06-19T11:04:15.145Z,838.13
2019-06-19T11:05:15.139Z,933.75
2019-06-19T11:06:15.131Z,1175.63
2019-06-19T11:07:15.133Z,1265.63
2019-06-19T11:08:15.127Z,1051.88
2019-06-19T11:09:15.122Z,990.00
2019-06-19T11:10:15.142Z,843.75
2019-06-19T11:11:15.122Z,731.25
2019-06-19T11:12:15.113Z,658.13
2019-06-19T11:13:15.107Z,624.38
2019-06-19T11:14:15.105Z,601.88
2019-06-19T11:15:15.102Z,607.50
2019-06-19T11:16:15.101Z,630.00
2019-06-19T11:17:15.110Z,652.50
2019-06-19T11:18:15.092Z,691.88
2019-06-19T11:19:15.088Z,720.00
2019-06-19T11:20:15.124Z,742.50
2019-06-19T11:21:15.349Z,793.13
2019-06-19T11:22:15.074Z,866.25
2019-06-19T11:23:15.073Z,950.63
2019-06-19T11:24:15.066Z,1051.88
2019-06-19T11:25:15.064Z,1136.25
2019-06-19T11:26:15.059Z,1063.13
2019-06-19T11:27:15.057Z,990.00
2019-06-19T11:28:15.053Z,922.50
2019-06-19T11:29:15.052Z,866.25
2019-06-19T11:30:15.052Z,804.38
2019-06-19T11:31:15.049Z,742.50
2019-06-19T11:32:15.035Z,691.88
2019-06-19T11:33:15.038Z,675.00
2019-06-19T11:34:15.034Z,675.00
2019-06-19T11:35:15.031Z,697.50
2019-06-19T11:36:15.023Z,720.00
2019-06-19T11:37:15.023Z,731.25
2019-06-19T11:38:15.022Z,753.75
2019-06-19T11:39:15.034Z,826.88
2019-06-19T11:40:15.008Z,950.63
2019-06-19T11:41:15.007Z,1192.50
2019-06-19T11:42:15.017Z,1192.50
2019-06-19T11:43:14.996Z,1125.00
2019-06-19T11:44:15.008Z,1153.13
2019-06-19T11:45:14.990Z,1023.75
2019-06-19T11:46:16.844Z,1035.00
2019-06-19T11:47:15.009Z,1051.88
2019-06-19T11:48:14.980Z,1051.88
2019-06-19T11:49:14.973Z,1051.88
2019-06-19T11:50:15.016Z,1051.88
2019-06-19T11:51:14.982Z,978.75
2019-06-19T11:52:15.005Z,911.25
2019-06-19T11:53:14.967Z,843.75
2019-06-19T11:54:14.966Z,770.63
2019-06-19T11:55:14.958Z,708.75
2019-06-19T11:56:14.949Z,658.13
2019-06-19T11:57:14.952Z,624.38
2019-06-19T11:58:14.944Z,596.25
2019-06-19T11:59:14.938Z,545.63
2019-06-19T12:00:14.946Z,517.50
2019-06-19T12:01:14.938Z,489.38
2019-06-19T12:02:14.935Z,466.88
2019-06-19T12:03:26.186Z,438.75
2019-06-19T12:04:14.931Z,416.25
2019-06-19T12:05:14.916Z,393.75
2019-06-19T12:06:14.913Z,382.50
2019-06-19T12:07:14.973Z,376.88
2019-06-19T12:08:14.902Z,388.13
2019-06-19T12:09:14.897Z,388.13
2019-06-19T12:10:14.891Z,405.00
2019-06-19T12:11:15.147Z,438.75
2019-06-19T12:12:14.887Z,472.50
2019-06-19T12:13:14.881Z,489.38
2019-06-19T12:14:18.615Z,489.38
2019-06-19T12:15:14.865Z,472.50
2019-06-19T12:16:14.864Z,466.88
2019-06-19T12:17:14.908Z,489.38
2019-06-19T12:18:14.851Z,528.75
2019-06-19T12:19:14.843Z,590.63
2019-06-19T12:20:14.893Z,658.13
2019-06-19T12:21:14.831Z,720.00
2019-06-19T12:22:14.825Z,781.88
2019-06-19T12:23:14.821Z,821.25
2019-06-19T12:24:14.814Z,849.38
2019-06-19T12:25:14.810Z,877.50
2019-06-19T12:26:14.813Z,922.50
2019-06-19T12:27:14.811Z,866.25
2019-06-19T12:28:14.803Z,866.25
2019-06-19T12:29:14.791Z,838.13
2019-06-19T12:30:14.783Z,804.38
2019-06-19T12:31:14.781Z,770.63
2019-06-19T12:32:14.770Z,748.13
2019-06-19T12:33:14.829Z,725.63
2019-06-19T12:34:14.763Z,765.00
2019-06-19T12:35:14.796Z,956.25
2019-06-19T12:36:29.098Z,1096.88
2019-06-19T12:37:14.744Z,1125.00